Terminal Aerodrome Forecast
Issued by NWS Mt. Holly, NJ

Home | Current Version | Previous Version | Text Only | Print | Product List | Glossary On
Versions: 1 2 3 4 5 6 7 8 9 10 11 12 13 14 15 16 17 18 19 20 21 22 23 24 25 26
599
FTUS41 KPHI 241411 AAB
TAFTTN
TAF AMD
KTTN 241411Z 2414/2512 31010KT P6SM OVC100
      TEMPO 2414/2416 BKN015 OVC100
     FM241800 29012KT P6SM SCT250
     FM242100 27006KT P6SM FEW250
     FM250300 VRB03KT P6SM FEW070=

USA.gov is the U.S. government's official web portal to all federal, state and local government web resources and services.